Huntley, Minnesota
Current Conditions -  °F | °C
As of 3:15 PM on Sunday 23 Nov 2014 (Local Time) from KFRM Reporting Station
Overcast Overcast  
Wind Chill: 34°   Ceiling: 6000
Heat Index: 43°   Visibility: 10mi
Dew Point: 36°   Wind: 23mph
Humidity: 76%   Direction: 330°NNW
Pressure: 29.41"   Gusts: 29mph
Location:  43.73°N, 94.24°W
Report Text: KFRM 232115Z AUTO 33020G25KT 10SM SCT011 OVC060 06/02 A2941 RMK AO1
Loading
Personal Weather Stations






























Interactive Weather Map New forecast layout! Learn more

10-Day Weather Forecast

Advertisements
Track Severe Weather on mobile